sensor_id;sensor_type;location;lat;lon;timestamp;temperature;humidity
27266;DHT22;14766;51.380;13.762;2023-03-23T00:00:00;16.50;50.10
27266;DHT22;14766;51.380;13.762;2023-03-23T00:02:36;16.50;50.10
27266;DHT22;14766;51.380;13.762;2023-03-23T00:05:07;16.50;50.20
27266;DHT22;14766;51.380;13.762;2023-03-23T00:07:34;16.50;50.00
27266;DHT22;14766;51.380;13.762;2023-03-23T00:10:00;16.50;50.00
27266;DHT22;14766;51.380;13.762;2023-03-23T00:12:30;16.50;50.00
27266;DHT22;14766;51.380;13.762;2023-03-23T00:15:00;16.40;50.00
27266;DHT22;14766;51.380;13.762;2023-03-23T00:17:27;16.50;50.00
27266;DHT22;14766;51.380;13.762;2023-03-23T00:19:54;16.50;50.00
27266;DHT22;14766;51.380;13.762;2023-03-23T00:22:19;16.50;50.00
27266;DHT22;14766;51.380;13.762;2023-03-23T00:24:47;16.50;50.00
27266;DHT22;14766;51.380;13.762;2023-03-23T00:27:17;16.50;50.00
27266;DHT22;14766;51.380;13.762;2023-03-23T00:29:43;16.50;50.10
27266;DHT22;14766;51.380;13.762;2023-03-23T00:32:11;16.50;50.10
27266;DHT22;14766;51.380;13.762;2023-03-23T00:34:39;16.50;50.20
27266;DHT22;14766;51.380;13.762;2023-03-23T00:37:06;16.50;50.20
27266;DHT22;14766;51.380;13.762;2023-03-23T00:39:33;16.40;50.20
27266;DHT22;14766;51.380;13.762;2023-03-23T00:42:03;16.40;50.30
27266;DHT22;14766;51.380;13.762;2023-03-23T00:44:31;16.40;50.30
27266;DHT22;14766;51.380;13.762;2023-03-23T00:46:58;16.40;50.40
27266;DHT22;14766;51.380;13.762;2023-03-23T00:49:25;16.40;50.40
27266;DHT22;14766;51.380;13.762;2023-03-23T00:51:54;16.40;50.40
27266;DHT22;14766;51.380;13.762;2023-03-23T00:54:21;16.40;50.50
27266;DHT22;14766;51.380;13.762;2023-03-23T00:56:49;16.40;50.60
27266;DHT22;14766;51.380;13.762;2023-03-23T00:59:17;16.40;50.60
27266;DHT22;14766;51.380;13.762;2023-03-23T01:01:44;16.40;50.50
27266;DHT22;14766;51.380;13.762;2023-03-23T01:04:10;16.30;50.50
27266;DHT22;14766;51.380;13.762;2023-03-23T01:06:39;16.30;50.50
27266;DHT22;14766;51.380;13.762;2023-03-23T01:09:12;16.30;50.50
27266;DHT22;14766;51.380;13.762;2023-03-23T01:11:43;16.30;50.50
27266;DHT22;14766;51.380;13.762;2023-03-23T01:14:11;16.30;50.70
27266;DHT22;14766;51.380;13.762;2023-03-23T01:16:37;16.30;50.70
27266;DHT22;14766;51.380;13.762;2023-03-23T01:19:03;16.30;50.80
27266;DHT22;14766;51.380;13.762;2023-03-23T01:21:29;16.30;50.80
27266;DHT22;14766;51.380;13.762;2023-03-23T01:23:55;16.30;50.90
27266;DHT22;14766;51.380;13.762;2023-03-23T01:26:24;16.20;50.90
27266;DHT22;14766;51.380;13.762;2023-03-23T01:28:51;16.20;51.10
27266;DHT22;14766;51.380;13.762;2023-03-23T01:31:20;16.20;51.10
27266;DHT22;14766;51.380;13.762;2023-03-23T01:33:46;16.20;51.10
27266;DHT22;14766;51.380;13.762;2023-03-23T01:36:18;16.20;51.10
27266;DHT22;14766;51.380;13.762;2023-03-23T01:38:46;16.20;51.10
27266;DHT22;14766;51.380;13.762;2023-03-23T01:41:14;16.20;51.00
27266;DHT22;14766;51.380;13.762;2023-03-23T01:43:57;16.20;51.00
27266;DHT22;14766;51.380;13.762;2023-03-23T01:46:26;16.20;51.00
27266;DHT22;14766;51.380;13.762;2023-03-23T01:48:54;16.20;50.90
27266;DHT22;14766;51.380;13.762;2023-03-23T01:51:22;16.10;50.80
27266;DHT22;14766;51.380;13.762;2023-03-23T01:53:57;16.20;50.80
27266;DHT22;14766;51.380;13.762;2023-03-23T01:56:28;16.10;50.70
27266;DHT22;14766;51.380;13.762;2023-03-23T01:58:57;16.20;50.80
27266;DHT22;14766;51.380;13.762;2023-03-23T02:01:24;16.20;50.70
27266;DHT22;14766;51.380;13.762;2023-03-23T02:03:52;16.20;50.70
27266;DHT22;14766;51.380;13.762;2023-03-23T02:06:21;16.20;50.60
27266;DHT22;14766;51.380;13.762;2023-03-23T02:09:07;16.20;50.70
27266;DHT22;14766;51.380;13.762;2023-03-23T02:11:34;16.20;50.60
27266;DHT22;14766;51.380;13.762;2023-03-23T02:14:02;16.20;50.60
27266;DHT22;14766;51.380;13.762;2023-03-23T02:38:49;16.00;50.20
27266;DHT22;14766;51.380;13.762;2023-03-23T02:41:21;16.00;50.10
27266;DHT22;14766;51.380;13.762;2023-03-23T02:43:49;16.00;50.20
27266;DHT22;14766;51.380;13.762;2023-03-23T02:46:16;16.00;50.20
27266;DHT22;14766;51.380;13.762;2023-03-23T02:48:44;16.00;50.20
27266;DHT22;14766;51.380;13.762;2023-03-23T02:51:12;16.00;50.10
27266;DHT22;14766;51.380;13.762;2023-03-23T02:53:40;16.00;50.10
27266;DHT22;14766;51.380;13.762;2023-03-23T02:56:08;16.00;50.10
27266;DHT22;14766;51.380;13.762;2023-03-23T02:58:36;16.00;50.00
27266;DHT22;14766;51.380;13.762;2023-03-23T03:03:51;16.00;49.90
27266;DHT22;14766;51.380;13.762;2023-03-23T03:06:33;16.00;49.90
27266;DHT22;14766;51.380;13.762;2023-03-23T03:11:46;16.00;49.70
27266;DHT22;14766;51.380;13.762;2023-03-23T03:14:21;16.00;49.80
27266;DHT22;14766;51.380;13.762;2023-03-23T03:17:16;16.00;49.70
27266;DHT22;14766;51.380;13.762;2023-03-23T03:19:47;16.00;49.70
27266;DHT22;14766;51.380;13.762;2023-03-23T03:22:15;16.00;49.70
27266;DHT22;14766;51.380;13.762;2023-03-23T03:24:43;16.00;49.70
27266;DHT22;14766;51.380;13.762;2023-03-23T03:27:18;16.00;49.70
27266;DHT22;14766;51.380;13.762;2023-03-23T03:29:56;16.00;49.70
27266;DHT22;14766;51.380;13.762;2023-03-23T03:32:38;16.00;49.70
27266;DHT22;14766;51.380;13.762;2023-03-23T03:35:06;16.00;49.70
27266;DHT22;14766;51.380;13.762;2023-03-23T03:37:36;16.00;49.70
27266;DHT22;14766;51.380;13.762;2023-03-23T03:40:06;15.90;49.60
27266;DHT22;14766;51.380;13.762;2023-03-23T03:42:41;16.00;49.70
27266;DHT22;14766;51.380;13.762;2023-03-23T03:45:10;16.00;49.80
27266;DHT22;14766;51.380;13.762;2023-03-23T03:47:37;15.90;49.90
27266;DHT22;14766;51.380;13.762;2023-03-23T03:50:07;15.90;50.00
27266;DHT22;14766;51.380;13.762;2023-03-23T03:52:34;15.90;50.00
27266;DHT22;14766;51.380;13.762;2023-03-23T03:55:00;15.90;50.00
27266;DHT22;14766;51.380;13.762;2023-03-23T03:57:27;15.90;49.90
27266;DHT22;14766;51.380;13.762;2023-03-23T04:00:12;15.90;49.90
27266;DHT22;14766;51.380;13.762;2023-03-23T04:02:41;15.90;50.00
27266;DHT22;14766;51.380;13.762;2023-03-23T04:05:08;15.90;50.10
27266;DHT22;14766;51.380;13.762;2023-03-23T04:07:36;15.90;50.10
27266;DHT22;14766;51.380;13.762;2023-03-23T04:10:08;15.90;49.90
27266;DHT22;14766;51.380;13.762;2023-03-23T04:12:36;15.80;49.90
27266;DHT22;14766;51.380;13.762;2023-03-23T04:15:20;15.80;49.90
27266;DHT22;14766;51.380;13.762;2023-03-23T04:17:47;15.80;49.80
27266;DHT22;14766;51.380;13.762;2023-03-23T04:20:14;15.80;49.70
27266;DHT22;14766;51.380;13.762;2023-03-23T04:22:49;15.90;49.80
27266;DHT22;14766;51.380;13.762;2023-03-23T04:25:17;15.90;49.80
27266;DHT22;14766;51.380;13.762;2023-03-23T04:27:51;15.90;49.50
27266;DHT22;14766;51.380;13.762;2023-03-23T04:30:25;15.90;49.50
27266;DHT22;14766;51.380;13.762;2023-03-23T04:33:12;15.90;49.70
27266;DHT22;14766;51.380;13.762;2023-03-23T04:35:46;15.90;49.70
27266;DHT22;14766;51.380;13.762;2023-03-23T04:38:23;16.00;49.90
27266;DHT22;14766;51.380;13.762;2023-03-23T04:40:56;16.00;49.90
27266;DHT22;14766;51.380;13.762;2023-03-23T04:43:38;16.00;50.00
27266;DHT22;14766;51.380;13.762;2023-03-23T04:46:22;16.00;50.00
27266;DHT22;14766;51.380;13.762;2023-03-23T04:48:50;16.10;50.10
27266;DHT22;14766;51.380;13.762;2023-03-23T04:51:21;16.10;50.10
27266;DHT22;14766;51.380;13.762;2023-03-23T04:53:50;16.10;50.00
27266;DHT22;14766;51.380;13.762;2023-03-23T04:56:16;16.20;50.10
27266;DHT22;14766;51.380;13.762;2023-03-23T04:58:45;16.20;50.10
27266;DHT22;14766;51.380;13.762;2023-03-23T05:01:30;16.20;50.00
27266;DHT22;14766;51.380;13.762;2023-03-23T05:04:23;16.20;50.10
27266;DHT22;14766;51.380;13.762;2023-03-23T05:07:00;16.30;50.20
27266;DHT22;14766;51.380;13.762;2023-03-23T05:09:30;16.30;50.20
27266;DHT22;14766;51.380;13.762;2023-03-23T05:11:56;16.30;50.20
27266;DHT22;14766;51.380;13.762;2023-03-23T05:14:24;16.30;50.30
27266;DHT22;14766;51.380;13.762;2023-03-23T05:17:02;16.30;50.20
27266;DHT22;14766;51.380;13.762;2023-03-23T05:19:28;16.30;50.10
27266;DHT22;14766;51.380;13.762;2023-03-23T05:21:57;16.40;50.20
27266;DHT22;14766;51.380;13.762;2023-03-23T05:24:32;16.40;50.10
27266;DHT22;14766;51.380;13.762;2023-03-23T05:27:02;16.40;50.00
27266;DHT22;14766;51.380;13.762;2023-03-23T05:29:33;16.40;50.00
27266;DHT22;14766;51.380;13.762;2023-03-23T05:32:05;16.40;50.10
27266;DHT22;14766;51.380;13.762;2023-03-23T05:34:35;16.50;50.00
27266;DHT22;14766;51.380;13.762;2023-03-23T05:37:02;16.50;50.00
27266;DHT22;14766;51.380;13.762;2023-03-23T05:39:36;16.50;50.00
27266;DHT22;14766;51.380;13.762;2023-03-23T05:42:23;16.60;50.10
27266;DHT22;14766;51.380;13.762;2023-03-23T05:45:05;16.50;49.90
27266;DHT22;14766;51.380;13.762;2023-03-23T05:47:32;16.60;50.00
27266;DHT22;14766;51.380;13.762;2023-03-23T05:50:05;16.60;49.90
27266;DHT22;14766;51.380;13.762;2023-03-23T05:52:33;16.60;50.00
27266;DHT22;14766;51.380;13.762;2023-03-23T05:55:04;16.60;49.90
27266;DHT22;14766;51.380;13.762;2023-03-23T05:57:34;16.60;50.00
27266;DHT22;14766;51.380;13.762;2023-03-23T06:00:05;16.60;50.00
27266;DHT22;14766;51.380;13.762;2023-03-23T06:02:50;16.70;50.00
27266;DHT22;14766;51.380;13.762;2023-03-23T06:05:26;16.70;50.20
27266;DHT22;14766;51.380;13.762;2023-03-23T06:07:55;16.70;50.10
27266;DHT22;14766;51.380;13.762;2023-03-23T06:10:21;16.70;50.10
27266;DHT22;14766;51.380;13.762;2023-03-23T06:12:54;16.70;50.20
27266;DHT22;14766;51.380;13.762;2023-03-23T06:15:43;16.70;50.20
27266;DHT22;14766;51.380;13.762;2023-03-23T06:18:13;16.70;50.20
27266;DHT22;14766;51.380;13.762;2023-03-23T06:20:58;16.70;50.10
27266;DHT22;14766;51.380;13.762;2023-03-23T06:23:45;16.80;50.20
27266;DHT22;14766;51.380;13.762;2023-03-23T06:26:14;16.70;50.10
27266;DHT22;14766;51.380;13.762;2023-03-23T06:28:46;16.80;50.10
27266;DHT22;14766;51.380;13.762;2023-03-23T06:31:13;16.80;50.20
27266;DHT22;14766;51.380;13.762;2023-03-23T06:33:40;16.80;50.10
27266;DHT22;14766;51.380;13.762;2023-03-23T06:36:27;16.80;50.40
27266;DHT22;14766;51.380;13.762;2023-03-23T06:39:09;16.90;50.50
27266;DHT22;14766;51.380;13.762;2023-03-23T06:41:58;16.90;50.40
27266;DHT22;14766;51.380;13.762;2023-03-23T06:44:31;16.90;50.30
27266;DHT22;14766;51.380;13.762;2023-03-23T06:46:57;16.90;50.10
27266;DHT22;14766;51.380;13.762;2023-03-23T06:49:30;17.00;50.10
27266;DHT22;14766;51.380;13.762;2023-03-23T06:52:20;17.10;50.10
27266;DHT22;14766;51.380;13.762;2023-03-23T06:54:49;17.10;49.50
27266;DHT22;14766;51.380;13.762;2023-03-23T06:57:17;17.10;49.50
27266;DHT22;14766;51.380;13.762;2023-03-23T06:59:45;17.10;49.60
27266;DHT22;14766;51.380;13.762;2023-03-23T07:02:13;17.10;49.60
27266;DHT22;14766;51.380;13.762;2023-03-23T07:04:46;17.20;49.20
27266;DHT22;14766;51.380;13.762;2023-03-23T07:07:20;17.20;49.20
27266;DHT22;14766;51.380;13.762;2023-03-23T07:10:10;17.20;49.20
27266;DHT22;14766;51.380;13.762;2023-03-23T07:12:38;17.20;49.00
27266;DHT22;14766;51.380;13.762;2023-03-23T07:15:06;17.20;48.90
27266;DHT22;14766;51.380;13.762;2023-03-23T07:17:37;17.30;49.10
27266;DHT22;14766;51.380;13.762;2023-03-23T07:20:16;17.40;49.20
27266;DHT22;14766;51.380;13.762;2023-03-23T07:22:42;17.40;49.10
27266;DHT22;14766;51.380;13.762;2023-03-23T07:25:21;17.40;48.70
27266;DHT22;14766;51.380;13.762;2023-03-23T07:27:53;17.50;48.80
27266;DHT22;14766;51.380;13.762;2023-03-23T07:30:20;17.50;48.80
27266;DHT22;14766;51.380;13.762;2023-03-23T07:32:46;17.50;48.80
27266;DHT22;14766;51.380;13.762;2023-03-23T07:35:13;17.60;48.90
27266;DHT22;14766;51.380;13.762;2023-03-23T07:37:52;17.60;48.80
27266;DHT22;14766;51.380;13.762;2023-03-23T07:40:19;17.60;49.30
27266;DHT22;14766;51.380;13.762;2023-03-23T07:42:55;17.60;49.40
27266;DHT22;14766;51.380;13.762;2023-03-23T07:45:35;17.60;49.40
27266;DHT22;14766;51.380;13.762;2023-03-23T07:48:01;17.60;49.40
27266;DHT22;14766;51.380;13.762;2023-03-23T07:50:29;17.50;49.40
27266;DHT22;14766;51.380;13.762;2023-03-23T07:52:57;17.50;49.90
27266;DHT22;14766;51.380;13.762;2023-03-23T07:55:26;17.40;50.10
27266;DHT22;14766;51.380;13.762;2023-03-23T07:58:13;17.40;50.70
27266;DHT22;14766;51.380;13.762;2023-03-23T08:00:48;17.40;50.70
27266;DHT22;14766;51.380;13.762;2023-03-23T08:03:17;17.40;50.80
27266;DHT22;14766;51.380;13.762;2023-03-23T08:06:07;17.40;51.60
27266;DHT22;14766;51.380;13.762;2023-03-23T08:08:43;17.40;52.50
27266;DHT22;14766;51.380;13.762;2023-03-23T08:11:27;17.40;53.40
27266;DHT22;14766;51.380;13.762;2023-03-23T08:14:13;17.40;53.70
27266;DHT22;14766;51.380;13.762;2023-03-23T08:16:56;17.40;53.90
27266;DHT22;14766;51.380;13.762;2023-03-23T08:19:48;17.30;54.40
27266;DHT22;14766;51.380;13.762;2023-03-23T08:22:53;17.40;54.10
27266;DHT22;14766;51.380;13.762;2023-03-23T08:25:36;17.40;54.40
27266;DHT22;14766;51.380;13.762;2023-03-23T08:28:14;17.30;54.10
27266;DHT22;14766;51.380;13.762;2023-03-23T08:30:58;17.30;54.10
27266;DHT22;14766;51.380;13.762;2023-03-23T08:33:44;17.30;54.40
27266;DHT22;14766;51.380;13.762;2023-03-23T08:36:34;17.30;54.40
27266;DHT22;14766;51.380;13.762;2023-03-23T08:39:21;17.20;54.90
27266;DHT22;14766;51.380;13.762;2023-03-23T08:42:06;17.20;55.00
27266;DHT22;14766;51.380;13.762;2023-03-23T08:44:48;17.20;55.20
27266;DHT22;14766;51.380;13.762;2023-03-23T08:47:35;17.20;55.50
27266;DHT22;14766;51.380;13.762;2023-03-23T08:50:15;17.10;55.30
27266;DHT22;14766;51.380;13.762;2023-03-23T08:52:51;17.10;55.30
27266;DHT22;14766;51.380;13.762;2023-03-23T08:55:33;17.00;55.50
27266;DHT22;14766;51.380;13.762;2023-03-23T08:58:17;17.00;56.00
27266;DHT22;14766;51.380;13.762;2023-03-23T09:01:09;17.00;55.90
27266;DHT22;14766;51.380;13.762;2023-03-23T09:03:42;17.00;56.10
27266;DHT22;14766;51.380;13.762;2023-03-23T09:06:36;17.00;56.00
27266;DHT22;14766;51.380;13.762;2023-03-23T09:09:03;17.00;56.30
27266;DHT22;14766;51.380;13.762;2023-03-23T09:11:36;17.00;56.60
27266;DHT22;14766;51.380;13.762;2023-03-23T09:14:04;17.00;56.60
27266;DHT22;14766;51.380;13.762;2023-03-23T09:16:30;17.00;56.90
27266;DHT22;14766;51.380;13.762;2023-03-23T09:18:57;16.90;56.90
27266;DHT22;14766;51.380;13.762;2023-03-23T09:21:24;16.90;57.20
27266;DHT22;14766;51.380;13.762;2023-03-23T09:23:51;16.90;57.20
27266;DHT22;14766;51.380;13.762;2023-03-23T09:26:17;16.90;57.60
27266;DHT22;14766;51.380;13.762;2023-03-23T09:28:43;16.90;57.40
27266;DHT22;14766;51.380;13.762;2023-03-23T09:31:12;16.90;57.70
27266;DHT22;14766;51.380;13.762;2023-03-23T09:33:38;16.90;57.70
27266;DHT22;14766;51.380;13.762;2023-03-23T09:36:08;16.90;57.70
27266;DHT22;14766;51.380;13.762;2023-03-23T09:38:38;16.90;58.00
27266;DHT22;14766;51.380;13.762;2023-03-23T09:41:36;16.90;57.40
27266;DHT22;14766;51.380;13.762;2023-03-23T09:49:21;17.00;57.60
27266;DHT22;14766;51.380;13.762;2023-03-23T09:51:51;17.00;57.40
27266;DHT22;14766;51.380;13.762;2023-03-23T09:54:23;17.00;57.40
27266;DHT22;14766;51.380;13.762;2023-03-23T09:56:51;17.00;57.30
27266;DHT22;14766;51.380;13.762;2023-03-23T10:01:58;17.10;57.20
27266;DHT22;14766;51.380;13.762;2023-03-23T10:04:35;17.10;57.20
27266;DHT22;14766;51.380;13.762;2023-03-23T10:07:24;17.10;57.40
27266;DHT22;14766;51.380;13.762;2023-03-23T10:09:57;17.10;57.60
27266;DHT22;14766;51.380;13.762;2023-03-23T10:12:38;17.20;57.20
27266;DHT22;14766;51.380;13.762;2023-03-23T10:15:38;17.30;57.30
27266;DHT22;14766;51.380;13.762;2023-03-23T10:18:37;17.30;57.00
27266;DHT22;14766;51.380;13.762;2023-03-23T10:21:06;17.40;56.90
27266;DHT22;14766;51.380;13.762;2023-03-23T10:23:58;17.40;56.90
27266;DHT22;14766;51.380;13.762;2023-03-23T10:32:16;17.60;56.70
27266;DHT22;14766;51.380;13.762;2023-03-23T10:34:56;17.60;56.70
27266;DHT22;14766;51.380;13.762;2023-03-23T10:37:26;17.60;56.50
27266;DHT22;14766;51.380;13.762;2023-03-23T10:39:55;17.70;56.40
27266;DHT22;14766;51.380;13.762;2023-03-23T10:42:31;17.70;56.60
27266;DHT22;14766;51.380;13.762;2023-03-23T10:45:21;17.80;56.70
27266;DHT22;14766;51.380;13.762;2023-03-23T10:47:53;17.80;56.10
27266;DHT22;14766;51.380;13.762;2023-03-23T10:50:25;18.00;56.40
27266;DHT22;14766;51.380;13.762;2023-03-23T10:52:54;18.00;55.40
27266;DHT22;14766;51.380;13.762;2023-03-23T10:55:23;18.10;55.60
27266;DHT22;14766;51.380;13.762;2023-03-23T10:58:01;18.20;54.40
27266;DHT22;14766;51.380;13.762;2023-03-23T11:00:28;18.20;54.60
27266;DHT22;14766;51.380;13.762;2023-03-23T11:05:45;18.30;53.40
27266;DHT22;14766;51.380;13.762;2023-03-23T11:08:18;18.30;53.30
27266;DHT22;14766;51.380;13.762;2023-03-23T11:13:31;18.40;53.20
27266;DHT22;14766;51.380;13.762;2023-03-23T11:15:58;18.40;53.20
27266;DHT22;14766;51.380;13.762;2023-03-23T11:21:03;18.40;53.20
27266;DHT22;14766;51.380;13.762;2023-03-23T11:26:28;18.30;53.40
27266;DHT22;14766;51.380;13.762;2023-03-23T11:31:23;18.30;53.70
27266;DHT22;14766;51.380;13.762;2023-03-23T11:36:19;18.30;54.10
27266;DHT22;14766;51.380;13.762;2023-03-23T11:38:46;18.30;53.60
27266;DHT22;14766;51.380;13.762;2023-03-23T11:41:17;18.30;53.40
27266;DHT22;14766;51.380;13.762;2023-03-23T11:43:46;18.30;52.90
27266;DHT22;14766;51.380;13.762;2023-03-23T11:49:01;18.30;52.10
27266;DHT22;14766;51.380;13.762;2023-03-23T11:51:44;18.30;52.40
27266;DHT22;14766;51.380;13.762;2023-03-23T11:56:52;18.20;51.60
27266;DHT22;14766;51.380;13.762;2023-03-23T11:59:46;18.30;51.90
27266;DHT22;14766;51.380;13.762;2023-03-23T12:05:09;18.20;52.90
27266;DHT22;14766;51.380;13.762;2023-03-23T12:24:24;18.10;55.40
27266;DHT22;14766;51.380;13.762;2023-03-23T12:38:20;17.90;56.10
27266;DHT22;14766;51.380;13.762;2023-03-23T12:40:58;17.90;56.40
27266;DHT22;14766;51.380;13.762;2023-03-23T12:54:29;18.00;57.10
27266;DHT22;14766;51.380;13.762;2023-03-23T13:00:22;18.00;57.10
27266;DHT22;14766;51.380;13.762;2023-03-23T13:02:55;18.00;56.60
27266;DHT22;14766;51.380;13.762;2023-03-23T13:08:00;18.00;56.70
27266;DHT22;14766;51.380;13.762;2023-03-23T13:10:32;18.00;56.40
27266;DHT22;14766;51.380;13.762;2023-03-23T13:12:59;18.10;56.40
27266;DHT22;14766;51.380;13.762;2023-03-23T13:15:47;18.10;56.20
27266;DHT22;14766;51.380;13.762;2023-03-23T13:18:19;18.10;55.80
27266;DHT22;14766;51.380;13.762;2023-03-23T13:30:56;18.20;55.20
27266;DHT22;14766;51.380;13.762;2023-03-23T13:33:22;18.20;54.90
27266;DHT22;14766;51.380;13.762;2023-03-23T13:35:50;18.20;54.90
27266;DHT22;14766;51.380;13.762;2023-03-23T13:38:26;18.20;54.90
27266;DHT22;14766;51.380;13.762;2023-03-23T13:40:54;18.20;55.00
27266;DHT22;14766;51.380;13.762;2023-03-23T13:43:32;18.10;55.00
27266;DHT22;14766;51.380;13.762;2023-03-23T13:48:45;18.20;55.10
27266;DHT22;14766;51.380;13.762;2023-03-23T13:51:47;18.20;55.00
27266;DHT22;14766;51.380;13.762;2023-03-23T13:54:25;18.20;55.20
27266;DHT22;14766;51.380;13.762;2023-03-23T13:56:58;18.20;55.40
27266;DHT22;14766;51.380;13.762;2023-03-23T14:01:54;18.30;55.20
27266;DHT22;14766;51.380;13.762;2023-03-23T14:04:21;18.40;55.30
27266;DHT22;14766;51.380;13.762;2023-03-23T14:06:50;18.50;54.90
27266;DHT22;14766;51.380;13.762;2023-03-23T14:09:31;18.60;54.50
27266;DHT22;14766;51.380;13.762;2023-03-23T14:11:58;18.60;54.30
27266;DHT22;14766;51.380;13.762;2023-03-23T14:14:31;18.70;54.10
27266;DHT22;14766;51.380;13.762;2023-03-23T14:17:30;18.70;54.00
27266;DHT22;14766;51.380;13.762;2023-03-23T14:19:58;18.80;53.90
27266;DHT22;14766;51.380;13.762;2023-03-23T14:22:36;18.80;53.00
27266;DHT22;14766;51.380;13.762;2023-03-23T14:25:30;18.80;52.60
27266;DHT22;14766;51.380;13.762;2023-03-23T14:27:58;18.80;52.10
27266;DHT22;14766;51.380;13.762;2023-03-23T14:30:27;18.80;52.00
27266;DHT22;14766;51.380;13.762;2023-03-23T14:33:05;18.80;52.10
27266;DHT22;14766;51.380;13.762;2023-03-23T14:35:34;18.80;52.30
27266;DHT22;14766;51.380;13.762;2023-03-23T14:38:01;18.80;52.30
27266;DHT22;14766;51.380;13.762;2023-03-23T14:40:28;18.90;52.00
27266;DHT22;14766;51.380;13.762;2023-03-23T14:42:55;18.90;51.80
27266;DHT22;14766;51.380;13.762;2023-03-23T14:45:23;18.90;50.80
27266;DHT22;14766;51.380;13.762;2023-03-23T14:48:00;18.90;50.60
27266;DHT22;14766;51.380;13.762;2023-03-23T14:53:30;18.80;50.00
27266;DHT22;14766;51.380;13.762;2023-03-23T14:56:00;18.80;50.00
27266;DHT22;14766;51.380;13.762;2023-03-23T14:58:28;18.80;50.50
27266;DHT22;14766;51.380;13.762;2023-03-23T15:01:09;18.70;50.30
27266;DHT22;14766;51.380;13.762;2023-03-23T15:03:51;18.70;50.40
27266;DHT22;14766;51.380;13.762;2023-03-23T15:06:21;18.70;50.60
27266;DHT22;14766;51.380;13.762;2023-03-23T15:08:49;18.70;50.60
27266;DHT22;14766;51.380;13.762;2023-03-23T15:13:48;18.60;50.60
27266;DHT22;14766;51.380;13.762;2023-03-23T15:16:19;18.60;51.00
27266;DHT22;14766;51.380;13.762;2023-03-23T15:18:57;18.60;50.70
27266;DHT22;14766;51.380;13.762;2023-03-23T15:21:31;18.60;50.80
27266;DHT22;14766;51.380;13.762;2023-03-23T15:24:00;18.60;50.80
27266;DHT22;14766;51.380;13.762;2023-03-23T15:26:34;18.60;50.40
27266;DHT22;14766;51.380;13.762;2023-03-23T15:29:21;18.60;50.70
27266;DHT22;14766;51.380;13.762;2023-03-23T15:31:54;18.60;50.50
27266;DHT22;14766;51.380;13.762;2023-03-23T15:34:35;18.60;50.80
27266;DHT22;14766;51.380;13.762;2023-03-23T15:37:21;18.60;50.60
27266;DHT22;14766;51.380;13.762;2023-03-23T15:39:47;18.60;50.50
27266;DHT22;14766;51.380;13.762;2023-03-23T15:42:41;18.60;50.60
27266;DHT22;14766;51.380;13.762;2023-03-23T15:50:46;18.50;50.20
27266;DHT22;14766;51.380;13.762;2023-03-23T15:52:53;18.50;50.30
27266;DHT22;14766;51.380;13.762;2023-03-23T15:57:48;18.50;50.40
27266;DHT22;14766;51.380;13.762;2023-03-23T16:00:20;18.50;50.40
27266;DHT22;14766;51.380;13.762;2023-03-23T16:02:53;18.40;50.40
27266;DHT22;14766;51.380;13.762;2023-03-23T16:05:20;18.40;50.70
27266;DHT22;14766;51.380;13.762;2023-03-23T16:07:49;18.40;50.70
27266;DHT22;14766;51.380;13.762;2023-03-23T16:10:19;18.40;50.80
27266;DHT22;14766;51.380;13.762;2023-03-23T16:12:47;18.40;51.00
27266;DHT22;14766;51.380;13.762;2023-03-23T16:15:15;18.40;51.00
27266;DHT22;14766;51.380;13.762;2023-03-23T16:17:42;18.40;51.10
27266;DHT22;14766;51.380;13.762;2023-03-23T16:20:15;18.30;51.20
27266;DHT22;14766;51.380;13.762;2023-03-23T16:22:43;18.30;51.30
27266;DHT22;14766;51.380;13.762;2023-03-23T16:25:10;18.30;51.40
27266;DHT22;14766;51.380;13.762;2023-03-23T16:27:38;18.30;51.50
27266;DHT22;14766;51.380;13.762;2023-03-23T16:30:18;18.30;51.60
27266;DHT22;14766;51.380;13.762;2023-03-23T16:32:45;18.20;51.60
27266;DHT22;14766;51.380;13.762;2023-03-23T16:35:13;18.20;51.70
27266;DHT22;14766;51.380;13.762;2023-03-23T16:37:49;18.20;51.60
27266;DHT22;14766;51.380;13.762;2023-03-23T16:40:33;18.20;51.70
27266;DHT22;14766;51.380;13.762;2023-03-23T16:43:01;18.20;51.80
27266;DHT22;14766;51.380;13.762;2023-03-23T16:45:37;18.20;51.80
27266;DHT22;14766;51.380;13.762;2023-03-23T16:48:05;18.20;51.80
27266;DHT22;14766;51.380;13.762;2023-03-23T16:50:34;18.10;51.80
27266;DHT22;14766;51.380;13.762;2023-03-23T16:53:05;18.20;52.10
27266;DHT22;14766;51.380;13.762;2023-03-23T16:55:39;18.10;52.10
27266;DHT22;14766;51.380;13.762;2023-03-23T16:58:06;18.10;52.20
27266;DHT22;14766;51.380;13.762;2023-03-23T17:00:47;18.10;52.30
27266;DHT22;14766;51.380;13.762;2023-03-23T17:03:15;18.10;52.30
27266;DHT22;14766;51.380;13.762;2023-03-23T17:05:44;18.10;52.40
27266;DHT22;14766;51.380;13.762;2023-03-23T17:08:14;18.10;52.60
27266;DHT22;14766;51.380;13.762;2023-03-23T17:10:43;18.10;52.70
27266;DHT22;14766;51.380;13.762;2023-03-23T17:13:11;18.10;52.70
27266;DHT22;14766;51.380;13.762;2023-03-23T17:15:42;18.10;52.80
27266;DHT22;14766;51.380;13.762;2023-03-23T17:18:13;18.10;52.90
27266;DHT22;14766;51.380;13.762;2023-03-23T17:20:44;18.10;53.10
27266;DHT22;14766;51.380;13.762;2023-03-23T17:23:16;18.10;53.20
27266;DHT22;14766;51.380;13.762;2023-03-23T17:25:47;18.00;53.30
27266;DHT22;14766;51.380;13.762;2023-03-23T17:28:15;18.00;53.20
27266;DHT22;14766;51.380;13.762;2023-03-23T17:30:47;18.00;53.20
27266;DHT22;14766;51.380;13.762;2023-03-23T17:33:14;17.90;53.20
27266;DHT22;14766;51.380;13.762;2023-03-23T17:35:44;17.90;53.30
27266;DHT22;14766;51.380;13.762;2023-03-23T17:38:14;17.90;53.50
27266;DHT22;14766;51.380;13.762;2023-03-23T17:40:44;17.90;53.50
27266;DHT22;14766;51.380;13.762;2023-03-23T17:43:12;17.90;53.60
27266;DHT22;14766;51.380;13.762;2023-03-23T17:45:40;17.80;53.50
27266;DHT22;14766;51.380;13.762;2023-03-23T17:48:12;17.80;53.60
27266;DHT22;14766;51.380;13.762;2023-03-23T17:50:39;17.80;53.70
27266;DHT22;14766;51.380;13.762;2023-03-23T17:53:06;17.80;53.80
27266;DHT22;14766;51.380;13.762;2023-03-23T17:55:33;17.70;53.80
27266;DHT22;14766;51.380;13.762;2023-03-23T17:58:00;17.70;53.90
27266;DHT22;14766;51.380;13.762;2023-03-23T18:00:28;17.60;53.90
27266;DHT22;14766;51.380;13.762;2023-03-23T18:02:55;17.60;54.00
27266;DHT22;14766;51.380;13.762;2023-03-23T18:05:22;17.60;54.10
27266;DHT22;14766;51.380;13.762;2023-03-23T18:07:50;17.50;54.10